createdAt,value
2022-12-19T00:00:46.261Z,97487.16
2022-12-19T00:03:16.254Z,97516.47
2022-12-19T00:05:44.643Z,97509.34
2022-12-19T00:08:18.167Z,97509.63
2022-12-19T00:10:57.222Z,97506.28
2022-12-19T00:13:27.151Z,97507.13
2022-12-19T00:16:01.713Z,97512.97
2022-12-19T00:18:30.180Z,97522.00
2022-12-19T00:21:01.137Z,97477.97
2022-12-19T00:23:31.593Z,97483.50
2022-12-19T00:26:11.684Z,97453.84
2022-12-19T00:28:40.214Z,97469.22
2022-12-19T00:31:08.765Z,97455.50
2022-12-19T00:33:37.889Z,97486.44
2022-12-19T00:36:16.902Z,97478.06
2022-12-19T00:38:52.153Z,97373.25
2022-12-19T00:41:25.192Z,97499.53
2022-12-19T00:43:54.849Z,97478.13
2022-12-19T00:46:23.218Z,97560.53
2022-12-19T00:48:51.509Z,97491.34
2022-12-19T00:51:22.094Z,97467.34
2022-12-19T00:53:51.760Z,97515.81
2022-12-19T00:56:25.912Z,97438.97
2022-12-19T00:58:55.152Z,97517.59
2022-12-19T01:01:51.310Z,97500.84
2022-12-19T01:04:29.154Z,97544.16
2022-12-19T01:07:01.906Z,97489.06
2022-12-19T01:09:33.729Z,97521.97
2022-12-19T01:12:24.421Z,97489.06
2022-12-19T01:14:57.750Z,97386.13
2022-12-19T01:17:44.004Z,97529.78
2022-12-19T01:20:15.117Z,97537.28
2022-12-19T01:22:43.410Z,97510.03
2022-12-19T01:25:15.835Z,97543.84
2022-12-19T01:27:45.476Z,97451.72
2022-12-19T01:30:14.946Z,97510.66
2022-12-19T01:32:43.611Z,97526.41
2022-12-19T01:35:17.358Z,97531.72
2022-12-19T01:37:50.104Z,97488.88
2022-12-19T01:40:18.658Z,97449.22
2022-12-19T01:42:49.140Z,97457.91
2022-12-19T01:45:33.823Z,97457.66
2022-12-19T01:48:20.295Z,97453.06
2022-12-19T01:51:01.073Z,97458.00
2022-12-19T01:53:45.173Z,97522.91
2022-12-19T01:56:21.093Z,97533.91
2022-12-19T01:58:59.387Z,97517.31
2022-12-19T02:01:41.507Z,97533.16
2022-12-19T02:04:24.499Z,97538.06
2022-12-19T02:06:55.137Z,97462.25
2022-12-19T02:09:25.632Z,97483.50
2022-12-19T02:11:54.897Z,97424.84
2022-12-19T02:14:24.912Z,97464.50
2022-12-19T02:17:00.485Z,97486.47
2022-12-19T02:20:16.782Z,97465.94
2022-12-19T02:23:07.579Z,97507.06
2022-12-19T02:26:06.653Z,97464.56
2022-12-19T02:28:58.614Z,97442.09
2022-12-19T02:31:32.658Z,97401.41
2022-12-19T02:34:11.551Z,97510.44
2022-12-19T02:36:52.891Z,97426.28
2022-12-19T02:39:28.218Z,97455.50
2022-12-19T02:42:00.856Z,97273.84
2022-12-19T02:44:35.017Z,97405.59
2022-12-19T02:47:06.885Z,97399.63
2022-12-19T02:49:39.641Z,97359.38
2022-12-19T02:52:12.671Z,97366.13
2022-12-19T02:54:44.955Z,97416.44
2022-12-19T02:57:21.456Z,97389.78
2022-12-19T03:00:05.357Z,97493.81
2022-12-19T03:03:00.229Z,97434.59
2022-12-19T03:05:37.243Z,97452.81
2022-12-19T03:08:14.219Z,97449.28
2022-12-19T03:10:46.939Z,97432.22
2022-12-19T03:13:20.777Z,97404.06
2022-12-19T03:15:51.067Z,97416.25
2022-12-19T03:18:21.349Z,97227.63
2022-12-19T03:20:54.111Z,97484.91
2022-12-19T03:23:23.095Z,97457.63
2022-12-19T03:25:55.425Z,97471.53
2022-12-19T03:28:28.909Z,97412.38
2022-12-19T03:31:00.143Z,97466.31
2022-12-19T03:33:33.807Z,97425.91
2022-12-19T03:36:07.673Z,97452.44
2022-12-19T03:38:39.265Z,97411.31
2022-12-19T03:41:10.164Z,97473.03
2022-12-19T03:43:40.052Z,97461.66
2022-12-19T03:46:17.435Z,97461.59
2022-12-19T03:48:50.239Z,97485.09
2022-12-19T03:51:30.533Z,97467.88
2022-12-19T03:54:04.646Z,97420.00
2022-12-19T03:56:39.554Z,97416.28
2022-12-19T03:59:12.439Z,97401.72
2022-12-19T04:01:42.464Z,97662.41
2022-12-19T04:04:13.161Z,97438.13
2022-12-19T04:06:43.711Z,97458.53
2022-12-19T04:09:15.679Z,97438.06
2022-12-19T04:11:52.277Z,97407.94
2022-12-19T04:14:26.746Z,97395.78
2022-12-19T04:17:05.327Z,97451.03
2022-12-19T04:19:43.944Z,97436.13
2022-12-19T04:22:17.946Z,97451.22
2022-12-19T04:24:51.096Z,97503.59
2022-12-19T04:27:23.837Z,97481.53
2022-12-19T04:29:56.256Z,97349.34
2022-12-19T04:32:26.667Z,97530.88
2022-12-19T04:34:56.375Z,97470.53
2022-12-19T04:37:24.628Z,97481.72
2022-12-19T04:39:53.029Z,97477.22
2022-12-19T04:42:21.555Z,97446.56
2022-12-19T04:44:49.827Z,97487.13
2022-12-19T04:47:18.114Z,97490.53
2022-12-19T04:49:46.529Z,97496.22
2022-12-19T04:52:16.153Z,97421.69
2022-12-19T04:54:44.420Z,97441.75
2022-12-19T04:57:12.733Z,97454.09
2022-12-19T04:59:41.858Z,97497.19
2022-12-19T05:02:10.193Z,97452.63
2022-12-19T05:04:38.570Z,97452.41
2022-12-19T05:07:06.845Z,97447.50
2022-12-19T05:09:36.464Z,97457.44
2022-12-19T05:12:05.436Z,97448.31
2022-12-19T05:14:33.774Z,97428.06
2022-12-19T05:17:02.105Z,97457.44
2022-12-19T05:19:30.552Z,97441.75
2022-12-19T05:21:59.251Z,97469.53
2022-12-19T05:24:27.680Z,97451.25
2022-12-19T05:26:57.315Z,97481.19
2022-12-19T05:29:25.791Z,97450.38
2022-12-19T05:31:54.515Z,97402.56
2022-12-19T05:34:22.886Z,97496.25
2022-12-19T05:36:51.212Z,97476.13
2022-12-19T05:39:19.884Z,97465.63
2022-12-19T05:41:49.319Z,97472.91
2022-12-19T05:44:19.053Z,97460.56
2022-12-19T05:46:47.793Z,97440.91
2022-12-19T05:49:16.292Z,97470.16
2022-12-19T05:51:47.766Z,97417.44
2022-12-19T05:54:16.410Z,97422.56
2022-12-19T05:56:44.960Z,97454.13
2022-12-19T05:59:13.273Z,97415.53
2022-12-19T06:01:43.492Z,97449.75
2022-12-19T06:04:11.862Z,97476.38
2022-12-19T06:06:40.235Z,97472.56
2022-12-19T06:09:08.547Z,97411.25
2022-12-19T06:11:36.818Z,97392.97
2022-12-19T06:14:05.138Z,97419.16
2022-12-19T06:16:33.462Z,97433.88
2022-12-19T06:19:03.173Z,97414.69
2022-12-19T06:21:31.448Z,97403.22
2022-12-19T06:24:00.004Z,97431.63
2022-12-19T06:26:28.532Z,97400.06
2022-12-19T06:28:57.283Z,97414.00
2022-12-19T06:31:26.308Z,97402.19
2022-12-19T06:33:56.870Z,97393.69
2022-12-19T06:36:28.683Z,97442.63
2022-12-19T06:39:00.174Z,97435.25
2022-12-19T06:41:46.342Z,97413.31
2022-12-19T06:44:17.116Z,97435.47
2022-12-19T06:46:45.862Z,97379.47
2022-12-19T06:49:14.350Z,97400.25
2022-12-19T06:51:44.530Z,97409.00
2022-12-19T06:54:13.696Z,97395.09
2022-12-19T06:56:44.134Z,97413.91
2022-12-19T06:59:15.433Z,97415.53
2022-12-19T07:01:57.808Z,97405.25
2022-12-19T07:04:34.380Z,97408.88
2022-12-19T07:07:11.462Z,97397.25
2022-12-19T07:09:40.136Z,97404.72
2022-12-19T07:12:09.055Z,97388.69
2022-12-19T07:14:37.778Z,97395.53
2022-12-19T07:17:06.618Z,97407.25
2022-12-19T07:19:36.279Z,97389.38
2022-12-19T07:22:05.948Z,97403.06
2022-12-19T07:24:36.785Z,97356.38
2022-12-19T07:27:05.407Z,97411.28
2022-12-19T07:29:33.659Z,97401.75
2022-12-19T07:32:01.961Z,97433.81
2022-12-19T07:34:30.722Z,97371.84
2022-12-19T07:36:58.980Z,97404.47
2022-12-19T07:39:27.647Z,97355.81
2022-12-19T07:41:57.351Z,97436.44
2022-12-19T07:44:40.031Z,97446.59
2022-12-19T07:47:11.379Z,97389.72
2022-12-19T07:49:39.679Z,97383.88
2022-12-19T07:52:08.439Z,97383.72
2022-12-19T07:54:36.698Z,97415.03
2022-12-19T07:57:06.338Z,97408.69
2022-12-19T07:59:39.112Z,97393.34
2022-12-19T08:02:08.212Z,97409.38
2022-12-19T08:04:36.635Z,97396.63
2022-12-19T08:07:05.188Z,97396.56
2022-12-19T08:09:33.626Z,97431.44
2022-12-19T08:12:01.995Z,97377.25
2022-12-19T08:14:31.634Z,97460.88
2022-12-19T08:19:48.540Z,97486.00
2022-12-19T08:22:16.814Z,97455.38
2022-12-19T08:24:45.438Z,97431.16
2022-12-19T08:27:13.679Z,97436.53
2022-12-19T08:29:43.396Z,97463.38
2022-12-19T08:32:15.625Z,97434.09
2022-12-19T08:34:47.155Z,97415.38
2022-12-19T08:37:15.420Z,97453.75
2022-12-19T08:39:43.701Z,97438.69
2022-12-19T08:42:12.006Z,97415.13
2022-12-19T08:44:40.309Z,97489.91
2022-12-19T08:47:09.889Z,97429.63
2022-12-19T08:49:38.183Z,97449.47
2022-12-19T08:52:06.492Z,97458.19
2022-12-19T08:54:35.010Z,97433.91
2022-12-19T08:57:03.328Z,97379.84
2022-12-19T08:59:32.418Z,97435.47
2022-12-19T09:02:01.813Z,97373.09
2022-12-19T09:05:57.825Z,97392.63
2022-12-19T09:07:20.001Z,97433.97
2022-12-19T09:09:48.504Z,97378.41
2022-12-19T09:12:17.524Z,97404.34
2022-12-19T09:14:45.992Z,97445.28
2022-12-19T09:17:14.385Z,97453.16
2022-12-19T09:19:47.973Z,97409.13
2022-12-19T09:22:17.512Z,97426.03
2022-12-19T09:24:45.784Z,97381.63
2022-12-19T09:27:14.617Z,97383.78
2022-12-19T09:29:43.756Z,97412.47
2022-12-19T09:32:12.467Z,97438.97
2022-12-19T09:34:47.255Z,97402.75
2022-12-19T09:37:17.668Z,97418.22
2022-12-19T09:39:47.304Z,97378.38
2022-12-19T09:42:59.363Z,97414.88
2022-12-19T09:45:44.513Z,97364.66
2022-12-19T09:48:23.939Z,97714.84
2022-12-19T09:51:09.237Z,97372.09
2022-12-19T09:53:54.522Z,97394.34
2022-12-19T09:56:28.265Z,97397.44
2022-12-19T09:59:03.614Z,97378.41
2022-12-19T10:01:38.899Z,97358.78
2022-12-19T10:04:13.512Z,97361.47
2022-12-19T10:07:15.773Z,97367.72
2022-12-19T10:11:37.255Z,97337.34
2022-12-19T10:12:52.940Z,97383.16
2022-12-19T10:15:31.119Z,97359.06
2022-12-19T10:18:30.764Z,97365.09
2022-12-19T10:21:08.247Z,97372.63
2022-12-19T10:24:18.998Z,97365.69
2022-12-19T10:26:52.567Z,97313.75
2022-12-19T10:29:47.604Z,97356.66
2022-12-19T10:32:25.369Z,97367.25
2022-12-19T10:34:54.942Z,97369.44
2022-12-19T10:37:37.590Z,97314.16
2022-12-19T10:40:27.584Z,97365.13
2022-12-19T10:43:10.425Z,97392.97
2022-12-19T10:45:46.969Z,97358.50
2022-12-19T10:48:25.709Z,97203.97
2022-12-19T10:51:06.263Z,97365.19
2022-12-19T10:53:35.433Z,97337.03
2022-12-19T10:56:15.510Z,97340.19
2022-12-19T10:58:45.755Z,97313.88
2022-12-19T11:01:17.477Z,97321.59
2022-12-19T11:03:50.990Z,97382.47
2022-12-19T11:06:51.147Z,97282.19
2022-12-19T11:09:27.686Z,97272.66
2022-12-19T11:16:09.533Z,97253.50
2022-12-19T11:19:16.583Z,97311.69
2022-12-19T11:25:43.461Z,97311.06
2022-12-19T11:29:44.966Z,97242.91
2022-12-19T11:29:54.826Z,97309.09
2022-12-19T11:30:46.766Z,97283.16
2022-12-19T11:32:43.632Z,97282.50
2022-12-19T11:35:24.852Z,97335.25
2022-12-19T11:37:57.742Z,97320.78
2022-12-19T11:40:35.213Z,97332.81
2022-12-19T11:43:43.025Z,97312.81
2022-12-19T11:46:06.937Z,97287.25
2022-12-19T11:48:42.558Z,97288.72
2022-12-19T11:51:22.274Z,97268.97
2022-12-19T11:53:58.119Z,97273.44
2022-12-19T11:56:27.969Z,97227.56
2022-12-19T11:59:00.987Z,97290.56
2022-12-19T12:01:52.330Z,97259.78
2022-12-19T12:04:56.545Z,97274.69
2022-12-19T12:07:43.963Z,97223.50
2022-12-19T12:14:55.892Z,97255.88
2022-12-19T12:21:44.232Z,97266.28
2022-12-19T12:28:32.365Z,97239.09
2022-12-19T12:31:01.482Z,97247.97
2022-12-19T12:31:13.773Z,97217.75
2022-12-19T12:31:18.282Z,97270.56
2022-12-19T12:31:52.361Z,97221.94
2022-12-19T12:35:40.782Z,97261.41
2022-12-19T12:41:09.781Z,97249.81
2022-12-19T12:43:58.327Z,97250.47
2022-12-19T12:46:33.091Z,97256.94
2022-12-19T12:49:06.484Z,97237.22
2022-12-19T12:51:36.949Z,97302.66
2022-12-19T12:54:11.584Z,97247.91
2022-12-19T12:56:40.714Z,97216.22
2022-12-19T12:59:25.875Z,97188.47
2022-12-19T13:01:56.285Z,97198.13
2022-12-19T13:04:33.093Z,97237.81
2022-12-19T13:07:36.266Z,97244.47
2022-12-19T13:10:18.979Z,97236.72
2022-12-19T13:13:14.261Z,97204.09
2022-12-19T13:15:45.859Z,97226.91
2022-12-19T13:18:34.166Z,97230.41
2022-12-19T13:21:08.156Z,97256.03
2022-12-19T13:23:52.724Z,97230.47
2022-12-19T13:26:47.810Z,97223.06
2022-12-19T13:29:35.547Z,97227.38
2022-12-19T13:32:15.950Z,97248.25
2022-12-19T13:35:05.823Z,97202.25
2022-12-19T13:39:57.007Z,97225.00
2022-12-19T13:40:59.389Z,97207.47
2022-12-19T13:43:46.201Z,97111.50
2022-12-19T13:46:33.534Z,97206.78
2022-12-19T13:49:08.094Z,97186.94
2022-12-19T13:51:50.756Z,97228.50
2022-12-19T13:54:32.955Z,97219.38
2022-12-19T13:57:27.253Z,97224.78
2022-12-19T14:00:01.305Z,97223.91
2022-12-19T14:02:46.696Z,97239.28
2022-12-19T14:05:48.545Z,97207.97
2022-12-19T14:08:20.892Z,97220.03
2022-12-19T14:11:36.033Z,97229.91
2022-12-19T14:14:12.618Z,97267.25
2022-12-19T14:16:45.734Z,97199.28
2022-12-19T14:19:23.485Z,97183.66
2022-12-19T14:22:11.069Z,97224.81
2022-12-19T14:24:41.371Z,97270.16
2022-12-19T14:28:26.135Z,97217.47
2022-12-19T14:30:27.815Z,97266.81
2022-12-19T14:33:45.065Z,97217.34
2022-12-19T14:36:10.046Z,97215.81
2022-12-19T14:39:22.475Z,97216.06
2022-12-19T14:42:01.824Z,97158.63
2022-12-19T14:53:17.505Z,97157.31
2022-12-19T14:54:11.820Z,97191.56
2022-12-19T14:54:25.926Z,97252.75
2022-12-19T14:54:26.486Z,97265.06
2022-12-19T14:59:03.087Z,97199.56
2022-12-19T15:01:34.148Z,97224.88
2022-12-19T15:04:48.163Z,97208.75
2022-12-19T15:07:11.782Z,97235.78
2022-12-19T15:11:03.854Z,97219.69
2022-12-19T15:14:54.139Z,97238.69
2022-12-19T15:16:05.299Z,97188.28
2022-12-19T15:18:41.340Z,97207.25
2022-12-19T15:21:14.579Z,97205.13
2022-12-19T15:23:45.394Z,97177.91
2022-12-19T15:26:18.859Z,97228.66
2022-12-19T15:28:50.882Z,97233.28
2022-12-19T15:31:29.884Z,97235.53
2022-12-19T15:36:47.993Z,97216.63
2022-12-19T15:39:16.549Z,97201.59
2022-12-19T15:41:46.329Z,97189.38
2022-12-19T15:44:18.785Z,97210.50
2022-12-19T15:46:49.357Z,97198.28
2022-12-19T15:49:19.697Z,97197.53
2022-12-19T15:51:50.484Z,97169.38
2022-12-19T15:54:48.029Z,97232.06
2022-12-19T15:57:19.874Z,97234.91
2022-12-19T15:59:48.737Z,97176.41
2022-12-19T16:02:22.748Z,97145.84
2022-12-19T16:04:56.899Z,97145.75
2022-12-19T16:07:31.832Z,97177.53
2022-12-19T16:10:00.206Z,97149.84
2022-12-19T16:12:37.602Z,97190.84
2022-12-19T16:15:07.654Z,97216.22
2022-12-19T16:17:35.941Z,97213.63
2022-12-19T16:20:04.231Z,97190.50
2022-12-19T16:22:33.918Z,97191.88
2022-12-19T16:25:02.223Z,97180.84
2022-12-19T16:27:32.238Z,97186.50
2022-12-19T16:30:18.981Z,97199.00
2022-12-19T16:32:48.422Z,97274.00
2022-12-19T16:35:29.002Z,97238.44
2022-12-19T16:38:09.107Z,97150.59
2022-12-19T16:40:37.452Z,97169.91
2022-12-19T16:43:08.920Z,97176.03
2022-12-19T16:45:39.435Z,97227.84
2022-12-19T16:48:19.894Z,97190.47
2022-12-19T16:50:48.489Z,97137.50
2022-12-19T16:53:18.804Z,97171.25
2022-12-19T16:55:48.840Z,97176.63
2022-12-19T16:58:27.998Z,97216.53
2022-12-19T17:00:56.982Z,97189.78
2022-12-19T17:03:40.959Z,97146.75
2022-12-19T17:06:19.621Z,97180.78
2022-12-19T17:08:49.996Z,97099.94
2022-12-19T17:11:22.892Z,97187.63
2022-12-19T17:13:53.987Z,97204.84
2022-12-19T17:16:22.583Z,97160.41
2022-12-19T17:18:51.509Z,97190.97
2022-12-19T17:21:22.884Z,97154.88
2022-12-19T17:23:52.983Z,97173.94
2022-12-19T17:26:21.289Z,97173.38
2022-12-19T17:28:49.596Z,97149.38
2022-12-19T17:31:23.652Z,97169.63
2022-12-19T17:33:52.458Z,97168.75
2022-12-19T17:36:25.428Z,97160.22
2022-12-19T17:38:56.554Z,97140.06
2022-12-19T17:41:25.516Z,97129.13
2022-12-19T17:43:54.309Z,97169.78
2022-12-19T17:46:24.810Z,97137.19
2022-12-19T17:48:54.738Z,97138.50
2022-12-19T17:51:24.699Z,97161.25
2022-12-19T17:53:53.967Z,97146.00
2022-12-19T17:56:23.533Z,97194.50
2022-12-19T17:58:51.833Z,97172.09
2022-12-19T18:01:21.716Z,97178.94
2022-12-19T18:03:52.651Z,97146.19
2022-12-19T18:06:21.666Z,97185.97
2022-12-19T18:08:49.973Z,97192.97
2022-12-19T18:11:21.643Z,97333.53
2022-12-19T18:13:52.717Z,97136.19
2022-12-19T18:16:24.781Z,97192.81
2022-12-19T18:18:53.261Z,97171.28
2022-12-19T18:21:24.205Z,97201.84
2022-12-19T18:23:52.743Z,97172.81
2022-12-19T18:26:21.035Z,97170.81
2022-12-19T18:28:50.909Z,97174.81
2022-12-19T18:31:25.428Z,97144.97
2022-12-19T18:34:00.836Z,97214.31
2022-12-19T18:36:38.274Z,97147.19
2022-12-19T18:39:19.269Z,97213.06
2022-12-19T18:41:47.885Z,97220.00
2022-12-19T18:44:17.838Z,97182.19
2022-12-19T18:46:47.316Z,97195.72
2022-12-19T18:49:17.776Z,97199.41
2022-12-19T18:51:46.225Z,97206.53
2022-12-19T18:54:15.647Z,97209.53
2022-12-19T18:56:44.483Z,97155.22
2022-12-19T18:59:13.588Z,97207.09
2022-12-19T19:01:47.498Z,96739.25
2022-12-19T19:04:17.811Z,97185.28
2022-12-19T19:06:51.597Z,97131.50
2022-12-19T19:09:22.611Z,97150.94
2022-12-19T19:11:53.830Z,97188.72
2022-12-19T19:14:22.480Z,97172.00
2022-12-19T19:16:52.981Z,97223.00
2022-12-19T19:19:21.330Z,97183.97
2022-12-19T19:21:49.733Z,97166.59
2022-12-19T19:24:20.668Z,97231.13
2022-12-19T19:26:49.561Z,97197.19
2022-12-19T19:29:19.714Z,97202.63
2022-12-19T19:31:52.462Z,97150.38
2022-12-19T19:34:26.063Z,97089.66
2022-12-19T19:36:56.927Z,97164.16
2022-12-19T19:39:25.646Z,97143.16
2022-12-19T19:41:56.112Z,97165.69
2022-12-19T19:44:24.502Z,97179.56
2022-12-19T19:46:54.224Z,97160.88
2022-12-19T19:49:23.144Z,97171.91
2022-12-19T19:51:54.334Z,97180.03
2022-12-19T19:54:26.884Z,97203.25
2022-12-19T19:56:55.157Z,97119.72
2022-12-19T19:59:23.881Z,97132.19
2022-12-19T20:01:54.418Z,97178.69
2022-12-19T20:04:23.202Z,97198.28
2022-12-19T20:06:51.493Z,97163.88
2022-12-19T20:09:19.845Z,97190.94
2022-12-19T20:11:48.075Z,97105.75
2022-12-19T20:14:16.344Z,97135.00
2022-12-19T20:16:44.749Z,97139.53
2022-12-19T20:19:15.656Z,97193.09
2022-12-19T20:21:44.089Z,97077.59
2022-12-19T20:24:12.816Z,97111.81
2022-12-19T20:26:41.395Z,97114.00
2022-12-19T20:29:11.508Z,97130.50
2022-12-19T20:31:40.274Z,97166.22
2022-12-19T20:34:08.927Z,97170.16
2022-12-19T20:36:38.750Z,97169.41
2022-12-19T20:39:07.460Z,97180.50
2022-12-19T20:41:35.993Z,97175.91
2022-12-19T20:44:04.364Z,97158.69
2022-12-19T20:46:32.674Z,97196.88
2022-12-19T20:49:01.080Z,97195.25
2022-12-19T20:51:29.328Z,97180.00
2022-12-19T20:53:59.513Z,97125.34
2022-12-19T20:56:28.514Z,97197.50
2022-12-19T20:58:56.989Z,97191.09
2022-12-19T21:01:50.913Z,97135.84
2022-12-19T21:04:26.698Z,97250.19
2022-12-19T21:06:55.441Z,97199.72
2022-12-19T21:09:25.005Z,97183.25
2022-12-19T21:11:53.216Z,97154.28
2022-12-19T21:14:37.248Z,97175.41
2022-12-19T21:17:05.598Z,97206.13
2022-12-19T21:19:33.946Z,97112.81
2022-12-19T21:22:02.412Z,97134.00
2022-12-19T21:24:33.044Z,97153.94
2022-12-19T21:27:01.576Z,97175.13
2022-12-19T21:29:29.869Z,97204.94
2022-12-19T21:31:58.197Z,97210.72
2022-12-19T21:34:26.670Z,97210.47
2022-12-19T21:36:55.062Z,97227.81
2022-12-19T21:39:25.437Z,97186.13
2022-12-19T21:41:55.759Z,97166.53
2022-12-19T21:44:24.046Z,97192.06
2022-12-19T21:46:52.429Z,97214.53
2022-12-19T21:49:21.235Z,97155.50
2022-12-19T21:51:49.493Z,97153.66
2022-12-19T21:54:17.772Z,97189.56
2022-12-19T21:56:46.023Z,97178.19
2022-12-19T21:59:18.036Z,97151.97
2022-12-19T22:01:46.919Z,97165.84
2022-12-19T22:04:17.800Z,97194.16
2022-12-19T22:06:46.318Z,97171.03
2022-12-19T22:09:17.561Z,97185.97
2022-12-19T22:11:46.471Z,97137.78
2022-12-19T22:14:17.915Z,97171.34
2022-12-19T22:16:46.452Z,97166.53
2022-12-19T22:19:17.175Z,97163.50
2022-12-19T22:21:46.862Z,97185.84
2022-12-19T22:24:17.045Z,97169.81
2022-12-19T22:26:45.417Z,97150.22
2022-12-19T22:29:18.686Z,97164.63
2022-12-19T22:31:47.773Z,97155.94
2022-12-19T22:34:18.786Z,97193.88
2022-12-19T22:36:47.831Z,97114.50
2022-12-19T22:39:19.989Z,97119.53
2022-12-19T22:41:48.591Z,97163.91
2022-12-19T22:44:21.422Z,97165.13
2022-12-19T22:46:51.198Z,97111.84
2022-12-19T22:49:19.647Z,97165.41
2022-12-19T22:51:47.890Z,97138.53
2022-12-19T22:54:16.285Z,97165.75
2022-12-19T22:56:44.688Z,97161.78
2022-12-19T22:59:13.899Z,97143.03
2022-12-19T23:01:44.913Z,97155.03
2022-12-19T23:04:22.464Z,97103.44
2022-12-19T23:06:50.813Z,97140.88
2022-12-19T23:09:20.463Z,97100.84
2022-12-19T23:11:50.725Z,97123.03
2022-12-19T23:14:21.075Z,97163.56
2022-12-19T23:16:51.147Z,97177.34
2022-12-19T23:19:19.699Z,97147.63
2022-12-19T23:21:48.370Z,97174.47
2022-12-19T23:24:16.759Z,97157.06
2022-12-19T23:26:45.843Z,97128.84
2022-12-19T23:29:16.349Z,97087.50
2022-12-19T23:31:47.469Z,97146.16
2022-12-19T23:34:18.766Z,97147.91
2022-12-19T23:39:36.640Z,97157.81
2022-12-19T23:42:05.122Z,97108.63
2022-12-19T23:44:33.480Z,97121.72
2022-12-19T23:47:03.916Z,97148.03
2022-12-19T23:49:34.478Z,97152.22
2022-12-19T23:52:02.851Z,97099.72
2022-12-19T23:54:31.338Z,97149.34
2022-12-19T23:56:59.778Z,97257.56
2022-12-19T23:59:28.021Z,97154.13
